Time;durP1;ratioP1;P1;durP2;ratioP2;P2;SDS_P1;SDS_P2;PMS_P1;PMS_P2;Temp;Humidity;BMP_temperature;BMP_pressure;BME280_temperature;BME280_humidity;BME280_pressure;Samples;Min_cycle;Max_cycle;Signal;HPM_P1;HPM_P2
2022/05/21 00:02:25;;;;;;;4.50;2.65;;;15.40;99.90;;;15.60;77.72;101470.06;5208553;28;20062;-70
2022/05/21 00:04:59;;;;;;;5.70;3.00;;;15.40;99.90;;;15.58;77.93;101477.00;5208799;28;20045;-71
2022/05/21 00:07:31;;;;;;;5.88;2.92;;;15.40;99.90;;;15.55;78.21;101476.94;5208818;28;20056;-70
2022/05/21 00:10:04;;;;;;;4.45;2.60;;;15.30;99.90;;;15.52;78.32;101475.13;5208432;28;20140;-69
2022/05/21 00:12:36;;;;;;;4.82;2.92;;;15.30;99.90;;;15.48;78.46;101479.41;5208244;28;20055;-69
2022/05/21 00:15:11;;;;;;;5.80;2.95;;;15.30;99.90;;;15.46;78.39;101478.50;5208730;28;20057;-70
2022/05/21 00:17:43;;;;;;;;;;;15.30;99.90;;;15.43;78.32;101473.13;5208456;28;20099;-71
2022/05/21 00:23:13;;;;;;;4.97;2.78;;;15.20;99.90;;;15.38;77.96;101474.75;5194989;28;20498;-71
2022/05/21 00:25:48;;;;;;;5.50;3.10;;;15.20;99.90;;;15.35;78.11;101482.56;5208196;28;20056;-70
2022/05/21 00:28:20;;;;;;;5.68;2.90;;;15.20;99.90;;;15.33;78.06;101476.41;5207999;28;20064;-70
2022/05/21 00:30:52;;;;;;;5.72;3.00;;;15.10;99.90;;;15.32;78.20;101479.88;5208199;28;20053;-70
2022/05/21 00:33:25;;;;;;;6.18;3.03;;;15.10;99.90;;;15.30;78.17;101480.66;5208601;28;20056;-70
2022/05/21 00:35:59;;;;;;;5.20;2.92;;;15.10;99.90;;;15.29;78.43;101479.78;5207889;28;20056;-70
2022/05/21 00:38:32;;;;;;;5.70;2.92;;;15.10;99.90;;;15.30;78.29;101478.03;5207786;28;20486;-71
2022/05/21 00:41:05;;;;;;;7.72;3.20;;;15.10;99.90;;;15.26;78.45;101474.47;5207796;28;20391;-70
2022/05/21 00:43:42;;;;;;;5.30;3.40;;;15.10;99.90;;;15.22;78.84;101472.59;5207645;28;20053;-69
2022/05/21 00:46:19;;;;;;;5.07;2.63;;;15.00;99.90;;;15.21;79.00;101470.81;5208030;28;20050;-71
2022/05/21 00:49:03;;;;;;;4.38;2.60;;;15.00;99.90;;;15.18;79.29;101473.34;5207470;28;20053;-70
2022/05/21 00:51:49;;;;;;;5.40;2.72;;;15.00;99.90;;;15.14;79.49;101474.13;5208476;28;20077;-69
2022/05/21 00:54:25;;;;;;;5.22;2.70;;;15.00;99.90;;;15.10;79.80;101480.13;5207797;28;20045;-70
2022/05/21 00:57:03;;;;;;;5.75;2.60;;;14.90;99.90;;;15.07;79.66;101478.31;5207783;28;20433;-70
2022/05/21 00:59:51;;;;;;;4.40;2.75;;;14.90;99.90;;;15.03;79.66;101481.69;5207205;28;20061;-70
2022/05/21 01:02:28;;;;;;;5.40;2.40;;;14.80;99.90;;;15.01;80.17;101483.41;5207157;28;20132;-70
2022/05/21 01:05:02;;;;;;;5.15;2.67;;;14.80;99.90;;;14.98;79.99;101482.41;5207606;28;20401;-73
2022/05/21 01:07:37;;;;;;;5.97;2.90;;;14.80;99.90;;;14.95;80.26;101479.72;5206817;28;20057;-70
2022/05/21 01:10:12;;;;;;;4.93;2.53;;;14.80;99.90;;;14.95;80.52;101488.50;5207572;28;20058;-69
2022/05/21 01:12:54;;;;;;;5.43;2.78;;;14.80;99.90;;;14.95;80.76;101483.25;5208201;28;20186;-71
2022/05/21 01:15:31;;;;;;;4.82;2.50;;;14.80;99.90;;;14.93;80.57;101482.28;5206934;28;20046;-70
2022/05/21 01:18:06;;;;;;;4.20;2.63;;;14.70;99.90;;;14.93;80.73;101479.66;5207411;28;20050;-70
2022/05/21 01:20:41;;;;;;;;;;;14.70;99.90;;;14.91;80.83;101487.50;5207346;28;20045;-71
2022/05/21 01:23:15;;;;;;;4.50;2.40;;;14.70;99.90;;;14.89;80.87;101480.44;5207354;28;20289;-70
2022/05/21 01:25:49;;;;;;;4.75;2.53;;;14.70;99.90;;;14.89;81.14;101486.56;5206984;28;20071;-71
2022/05/21 01:28:25;;;;;;;4.22;2.67;;;14.70;99.90;;;14.88;81.25;101486.53;5206815;28;20052;-70
2022/05/21 01:30:59;;;;;;;4.07;2.55;;;14.70;99.90;;;14.87;81.30;101484.75;5207208;28;20059;-71
2022/05/21 01:33:35;;;;;;;5.03;2.40;;;14.70;99.90;;;14.87;81.39;101483.03;5207177;28;20042;-71
2022/05/21 01:36:08;;;;;;;5.22;2.50;;;14.70;99.90;;;14.86;81.20;101483.84;5206777;28;20050;-70
2022/05/21 01:38:43;;;;;;;4.82;2.78;;;14.70;99.90;;;14.86;81.15;101482.97;5206776;28;20071;-71
2022/05/21 01:41:15;;;;;;;;;;;14.70;99.90;;;14.87;80.96;101490.91;5207225;28;20410;-69
2022/05/21 01:46:36;;;;;;;4.88;3.00;;;14.70;99.90;;;14.86;80.98;101490.84;5206631;28;20540;-69
2022/05/21 01:49:08;;;;;;;5.50;2.30;;;14.70;99.90;;;14.83;80.89;101483.78;5207047;28;20074;-70
2022/05/21 01:51:40;;;;;;;4.18;2.50;;;14.60;99.90;;;14.83;80.82;101483.78;5206613;28;20071;-69
2022/05/21 01:54:14;;;;;;;3.95;2.22;;;14.60;99.90;;;14.82;81.10;101487.25;5206299;28;20073;-70
2022/05/21 01:56:46;;;;;;;4.72;2.95;;;14.60;99.90;;;14.80;80.87;101494.19;5206215;28;20132;-71
2022/05/21 01:59:18;;;;;;;4.40;2.80;;;14.60;99.90;;;14.79;80.58;101492.41;5206682;28;20053;-70
2022/05/21 02:01:50;;;;;;;4.47;2.58;;;14.60;99.90;;;14.77;80.16;101490.59;5206568;28;20139;-70
2022/05/21 02:04:22;;;;;;;4.55;2.65;;;14.60;99.90;;;14.77;79.91;101491.47;5206706;28;20134;-69
2022/05/21 02:06:55;;;;;;;4.53;2.63;;;14.60;99.90;;;14.77;79.75;101486.22;5206244;28;20124;-69
2022/05/21 02:09:28;;;;;;;8.07;3.65;;;14.60;99.90;;;14.78;79.26;101492.34;5206638;28;20045;-71
2022/05/21 02:12:00;;;;;;;5.82;2.90;;;14.60;99.90;;;14.77;79.06;101487.97;5206051;28;20046;-70
2022/05/21 02:14:33;;;;;;;5.05;3.22;;;14.60;99.90;;;14.76;78.83;101487.06;5206253;28;20402;-70
2022/05/21 02:17:05;;;;;;;4.63;2.35;;;14.60;99.90;;;14.77;78.87;101486.22;5206151;28;20045;-69
2022/05/21 02:19:37;;;;;;;4.10;2.63;;;14.60;99.90;;;14.76;78.80;101476.56;5206067;28;20548;-69
2022/05/21 02:22:09;;;;;;;4.10;2.47;;;14.60;99.90;;;14.76;78.72;101478.31;5206309;28;20054;-69
2022/05/21 02:24:43;;;;;;;2.90;2.08;;;14.60;99.90;;;14.73;79.06;101475.59;5205924;28;20045;-70
2022/05/21 02:27:16;;;;;;;3.33;1.98;;;14.50;99.90;;;14.67;79.14;101486.81;5206614;28;20045;-69
2022/05/21 02:29:48;;;;;;;4.43;2.10;;;14.50;99.90;;;14.63;79.54;101475.34;5205740;28;20063;-71
2022/05/21 02:32:20;;;;;;;3.35;2.05;;;14.40;99.90;;;14.62;79.56;101483.16;5205812;28;20050;-70
2022/05/21 02:34:52;;;;;;;2.42;1.75;;;14.50;99.90;;;14.63;79.05;101474.44;5205844;28;20045;-70
2022/05/21 02:40:15;;;;;;;3.20;1.83;;;14.50;99.90;;;14.63;78.50;101487.56;5205835;28;20057;-70
2022/05/21 02:42:47;;;;;;;3.08;1.70;;;14.50;99.90;;;14.63;78.14;101484.94;5205897;28;20049;-70
2022/05/21 02:45:23;;;;;;;3.22;1.80;;;14.50;99.90;;;14.62;78.45;101483.16;5206800;28;20049;-70
2022/05/21 02:47:57;;;;;;;2.95;2.03;;;14.40;99.90;;;14.62;78.45;101491.03;5206160;28;20050;-71
2022/05/21 02:50:33;;;;;;;3.10;2.10;;;14.40;99.90;;;14.60;78.26;101490.09;5205887;28;20052;-69
2022/05/21 02:53:09;;;;;;;3.25;2.05;;;14.40;99.90;;;14.60;78.34;101490.09;5205553;28;20058;-70
2022/05/21 02:55:42;;;;;;;3.40;2.03;;;14.40;99.90;;;14.62;79.03;101483.16;5206053;28;20052;-71
2022/05/21 02:58:15;;;;;;;3.78;2.60;;;14.40;99.90;;;14.62;78.84;101488.41;5205688;28;20060;-71
2022/05/21 03:00:47;;;;;;;4.10;2.35;;;14.50;99.90;;;14.63;78.70;101484.94;5206068;28;20488;-71
2022/05/21 03:03:19;;;;;;;3.90;2.25;;;14.50;99.90;;;14.62;78.42;101485.78;5205653;28;20049;-71
2022/05/21 03:05:51;;;;;;;3.67;1.85;;;14.50;99.90;;;14.61;78.52;101481.41;5206288;28;20645;-70
2022/05/21 03:11:14;;;;;;;4.22;1.95;;;14.40;99.90;;;14.54;78.35;101482.03;5205753;28;20056;-70
2022/05/21 03:13:46;;;;;;;2.90;1.90;;;14.40;99.90;;;14.49;78.61;101486.28;5205699;28;20490;-70
2022/05/21 03:16:18;;;;;;;3.38;1.55;;;14.30;99.90;;;14.46;78.37;101483.50;5205764;28;20483;-70
2022/05/21 03:18:50;;;;;;;3.33;1.55;;;14.30;99.90;;;14.40;78.33;101485.09;5205432;28;20081;-70
2022/05/21 03:21:22;;;;;;;2.58;1.95;;;14.30;99.90;;;14.35;78.40;101481.47;5205975;28;20075;-69
2022/05/21 03:23:54;;;;;;;1.95;1.30;;;14.20;99.90;;;14.33;78.24;101485.75;5206124;28;20045;-71
2022/05/21 03:26:29;;;;;;;2.58;1.35;;;14.20;99.90;;;14.31;78.60;101482.22;5205829;28;20042;-69
2022/05/21 03:29:01;;;;;;;;;;;14.10;99.90;;;14.28;79.27;101486.47;5206048;28;20528;-71
2022/05/21 03:31:33;;;;;;;2.70;1.42;;;14.10;99.90;;;14.28;79.55;101486.47;5207388;28;19921;-70
2022/05/21 03:34:05;;;;;;;3.08;1.33;;;14.10;99.90;;;14.30;79.91;101490.94;5209478;28;20053;-71
2022/05/21 03:36:38;;;;;;;3.53;1.33;;;14.10;99.90;;;14.31;79.56;101491.81;5209264;28;20048;-70
2022/05/21 03:39:10;;;;;;;1.92;1.17;;;14.20;99.90;;;14.35;79.50;101501.56;5209145;28;20505;-71
2022/05/21 03:41:43;;;;;;;2.90;1.58;;;14.20;99.90;;;14.43;79.94;101504.41;5209186;28;20056;-70
2022/05/21 03:44:15;;;;;;;1.30;1.02;;;14.20;99.90;;;14.47;79.51;101498.44;5209659;28;20487;-70
2022/05/21 03:46:47;;;;;;;1.23;0.93;;;14.30;99.90;;;14.49;78.68;101502.03;5209198;28;20046;-71
2022/05/21 03:49:20;;;;;;;2.42;1.10;;;14.30;99.90;;;14.51;78.23;101500.31;5208756;28;20506;-69
2022/05/21 03:51:52;;;;;;;2.75;1.27;;;14.30;99.90;;;14.54;77.86;101505.63;5208567;28;20045;-70
2022/05/21 03:54:24;;;;;;;2.10;1.10;;;14.30;99.90;;;14.57;77.80;101497.88;5209106;28;20060;-71
2022/05/21 03:56:57;;;;;;;2.88;1.23;;;14.40;99.90;;;14.61;77.97;101502.38;5208554;28;20055;-71
2022/05/21 03:59:29;;;;;;;1.40;1.02;;;14.40;99.90;;;14.64;77.86;101499.84;5208743;28;20501;-70
2022/05/21 04:02:02;;;;;;;1.67;0.95;;;14.50;99.90;;;14.68;77.76;101499.09;5209285;28;20072;-72
2022/05/21 04:04:34;;;;;;;1.42;1.33;;;14.50;99.90;;;14.71;77.35;101501.78;5208830;28;20253;-71
2022/05/21 04:07:07;;;;;;;3.63;1.08;;;14.50;99.90;;;14.73;77.26;101500.09;5208496;28;20057;-70
2022/05/21 04:09:39;;;;;;;3.40;1.02;;;14.50;99.90;;;14.76;76.95;101507.19;5208430;28;20056;-70
2022/05/21 04:12:13;;;;;;;0.98;0.63;;;14.60;99.90;;;14.78;76.87;101506.38;5208427;28;20054;-70
2022/05/21 04:14:45;;;;;;;1.98;0.82;;;14.60;99.90;;;14.79;76.33;101507.25;5208542;28;20049;-70
2022/05/21 04:17:17;;;;;;;1.83;1.23;;;14.60;99.90;;;14.77;76.04;101509.84;5208644;28;20050;-70
2022/05/21 04:19:49;;;;;;;2.22;0.98;;;14.60;99.90;;;14.76;76.17;101508.06;5208587;28;20060;-70
2022/05/21 04:22:21;;;;;;;2.65;0.75;;;14.60;99.90;;;14.80;76.01;101515.19;5208402;28;20052;-71
2022/05/21 04:24:53;;;;;;;3.13;0.90;;;14.60;99.90;;;14.80;75.97;101514.28;5208622;28;20634;-70
2022/05/21 04:27:26;;;;;;;1.65;0.90;;;14.60;99.90;;;14.82;76.20;101516.13;5208297;28;20049;-71
2022/05/21 04:29:58;;;;;;;1.17;1.02;;;14.60;99.90;;;14.86;76.25;101520.59;5208155;28;20056;-70
2022/05/21 04:32:30;;;;;;;0.63;0.60;;;14.70;99.90;;;14.87;76.40;101517.16;5208025;28;20493;-69
2022/05/21 04:35:02;;;;;;;1.17;0.90;;;14.70;99.90;;;14.91;76.29;101508.50;5208391;28;20045;-71
2022/05/21 04:37:37;;;;;;;1.58;0.68;;;14.70;99.90;;;14.93;76.08;101505.91;5208171;28;20492;-71
2022/05/21 04:40:16;;;;;;;2.33;0.85;;;14.80;99.90;;;14.95;75.63;101504.25;5208671;28;20414;-71
2022/05/21 04:42:50;;;;;;;1.75;0.68;;;14.80;99.90;;;14.97;75.86;101502.53;5206657;28;20055;-69
2022/05/21 04:45:22;;;;;;;1.95;0.80;;;14.80;99.90;;;15.01;75.47;101508.78;5207736;28;20052;-70
2022/05/21 04:47:54;;;;;;;1.23;0.80;;;14.80;99.90;;;15.00;75.06;101512.25;5207843;28;20049;-69
2022/05/21 04:50:26;;;;;;;2.80;0.90;;;14.80;99.90;;;14.98;74.77;101511.28;5207573;28;20052;-70
2022/05/21 04:52:58;;;;;;;3.15;1.10;;;14.80;99.90;;;14.99;75.02;101511.34;5270532;22;20499;-73
2022/05/21 04:55:30;;;;;;;1.35;0.68;;;14.80;99.90;;;15.01;75.19;101516.66;5164471;28;20423;-72
2022/05/21 04:58:05;;;;;;;3.58;0.82;;;14.80;99.90;;;15.04;75.28;101524.59;5156675;28;20047;-74
2022/05/21 05:00:37;;;;;;;1.88;0.73;;;14.80;99.90;;;15.03;75.31;101514.94;5146472;28;20422;-72
2022/05/21 05:03:14;;;;;;;1.88;1.00;;;14.90;99.90;;;15.05;75.69;101518.50;5146657;28;20053;-73
2022/05/21 05:05:47;;;;;;;1.17;0.75;;;14.90;99.90;;;15.06;75.65;101523.81;5146342;28;20395;-73
2022/05/21 05:08:21;;;;;;;2.30;1.00;;;14.90;99.90;;;15.05;75.75;101531.63;5146404;28;20057;-73
2022/05/21 05:10:55;;;;;;;1.80;1.08;;;14.90;99.90;;;15.07;76.14;101536.09;5146471;28;20091;-73
2022/05/21 05:13:28;;;;;;;2.33;0.73;;;14.90;99.90;;;15.06;76.08;101539.56;5146455;28;20077;-72
2022/05/21 05:16:00;;;;;;;5.35;0.80;;;14.90;99.90;;;15.10;75.80;101533.53;5146157;28;20054;-72
2022/05/21 05:18:32;;;;;;;0.80;0.77;;;14.90;99.90;;;15.13;75.66;101532.75;5145788;28;20066;-72
2022/05/21 05:21:04;;;;;;;2.03;0.90;;;14.90;99.90;;;15.14;75.37;101535.41;5146301;28;20051;-73
2022/05/21 05:23:37;;;;;;;1.42;0.70;;;14.90;99.90;;;15.18;75.33;101544.25;5146353;28;20161;-72
2022/05/21 05:26:09;;;;;;;1.80;0.80;;;15.00;99.90;;;15.21;75.33;101539.09;5146197;28;20057;-73
2022/05/21 05:28:42;;;;;;;2.80;0.90;;;15.00;99.90;;;15.25;75.38;101551.44;5158961;28;20072;-72
2022/05/21 05:31:15;;;;;;;5.07;0.75;;;15.10;99.90;;;15.31;75.21;101550.75;5158004;28;20078;-73
2022/05/21 05:33:47;;;;;;;1.08;0.88;;;15.10;99.90;;;15.37;75.26;101545.66;5162303;28;20054;-72
2022/05/21 05:36:19;;;;;;;2.67;0.70;;;15.20;99.90;;;15.44;75.40;101545.84;5162633;28;20043;-73
2022/05/21 05:38:51;;;;;;;3.35;0.93;;;15.20;99.90;;;15.52;75.42;101546.09;5159577;28;20054;-73
2022/05/21 05:41:23;;;;;;;1.95;0.77;;;15.30;99.90;;;15.58;75.15;101546.22;5165839;28;20050;-72
2022/05/21 05:43:57;;;;;;;2.78;0.82;;;15.40;99.90;;;15.63;74.72;101549.00;5165911;28;20050;-72
2022/05/21 05:46:29;;;;;;;4.15;0.90;;;15.40;99.90;;;15.64;74.60;101540.28;5166928;28;20042;-77
2022/05/21 05:49:02;;;;;;;1.83;1.10;;;15.50;99.90;;;15.68;74.70;101548.28;5166785;28;20054;-72
2022/05/21 05:51:35;;;;;;;3.08;1.10;;;15.50;99.90;;;15.71;74.74;101551.00;5165985;28;20503;-71
2022/05/21 05:54:07;;;;;;;2.20;0.95;;;15.50;99.90;;;15.74;74.86;101550.19;5165259;28;20061;-71
2022/05/21 05:56:42;;;;;;;3.85;1.08;;;15.50;99.90;;;15.74;74.75;101552.81;5165684;28;20129;-71
2022/05/21 06:04:55;;;;;;;6.30;1.70;;;15.50;99.90;;;15.63;73.88;101549.00;5165630;28;20081;-70
2022/05/21 06:07:27;;;;;;;4.43;1.50;;;15.40;99.90;;;15.62;73.58;101549.88;5165805;28;20652;-70
2022/05/21 06:10:06;;;;;;;4.95;1.58;;;15.40;99.90;;;15.65;73.14;101552.59;5165683;28;20483;-70
2022/05/21 06:12:38;;;;;;;3.10;1.65;;;15.40;99.90;;;15.60;73.13;101554.16;5165482;28;20050;-71
2022/05/21 06:15:13;;;;;;;5.53;1.85;;;15.40;99.90;;;15.67;73.25;101556.13;5165722;28;20105;-69
2022/05/21 06:17:45;;;;;;;4.20;2.42;;;15.40;99.90;;;15.75;72.96;101549.31;5165612;28;20399;-70
2022/05/21 06:20:21;;;;;;;4.93;1.80;;;15.50;99.90;;;15.82;73.07;101559.16;5163849;28;20054;-69
2022/05/21 06:22:54;;;;;;;4.15;1.92;;;15.60;99.90;;;15.94;73.04;101562.09;5153240;28;20058;-69
2022/05/21 06:25:29;;;;;;;4.43;1.33;;;15.70;99.90;;;15.99;72.33;101563.09;5153226;28;20065;-70
2022/05/21 06:28:02;;;;;;;8.65;1.92;;;15.70;99.90;;;15.99;72.08;101555.22;5152610;28;20057;-70
2022/05/21 06:30:38;;;;;;;3.20;1.70;;;15.70;99.90;;;16.00;72.34;101562.25;5148400;28;20079;-69
2022/05/21 06:33:17;;;;;;;4.20;1.75;;;15.80;99.90;;;16.04;72.29;101557.03;5150724;28;20046;-70
2022/05/21 06:36:02;;;;;;;3.22;1.90;;;15.80;99.90;;;16.10;72.19;101551.94;5164564;28;20104;-69
2022/05/21 06:38:35;;;;;;;3.05;1.60;;;15.80;99.90;;;16.17;72.06;101556.50;5165101;28;20061;-69
2022/05/21 06:41:07;;;;;;;6.30;2.08;;;15.90;99.90;;;16.26;71.83;101556.72;5165127;28;20093;-69
2022/05/21 06:43:40;;;;;;;3.13;1.60;;;16.00;99.90;;;16.22;71.49;101560.13;5164986;28;20050;-70
2022/05/21 06:46:13;;;;;;;7.50;2.33;;;16.00;99.90;;;16.23;71.47;101561.91;5165172;28;20050;-70
2022/05/21 06:48:45;;;;;;;8.88;2.10;;;16.00;99.90;;;16.18;70.61;101566.19;5164892;28;20061;-69
2022/05/21 06:51:17;;;;;;;2.90;1.70;;;16.00;99.90;;;16.18;70.94;101568.81;5165274;28;20423;-69
2022/05/21 06:53:49;;;;;;;7.00;2.17;;;15.90;99.90;;;16.20;70.62;101570.63;5164963;28;20418;-69
2022/05/21 06:56:21;;;;;;;6.03;1.65;;;15.90;99.90;;;16.22;70.84;101578.53;5164883;28;20050;-69
2022/05/21 06:58:53;;;;;;;5.25;2.20;;;15.90;99.90;;;16.22;70.86;101574.16;5164641;28;20046;-69
2022/05/21 07:01:27;;;;;;;5.72;1.85;;;16.00;99.90;;;16.26;71.22;101581.28;5165293;28;20055;-69
2022/05/21 07:03:59;;;;;;;5.40;2.10;;;16.00;99.90;;;16.27;71.13;101576.91;5165266;28;20488;-70
2022/05/21 07:09:21;;;;;;;3.70;1.73;;;16.00;99.90;;;16.25;71.15;101587.41;5168880;28;20073;-70
2022/05/21 07:11:53;;;;;;;5.18;1.73;;;16.00;99.90;;;16.28;71.12;101578.69;5169071;28;20046;-70
2022/05/21 07:14:25;;;;;;;2.92;1.70;;;16.00;99.90;;;16.29;71.29;101589.25;5168903;28;20056;-70
2022/05/21 07:16:58;;;;;;;4.25;2.30;;;16.00;99.90;;;16.30;71.48;101587.53;5168505;28;20411;-69
2022/05/21 07:19:30;;;;;;;4.93;1.90;;;16.00;99.90;;;16.27;71.15;101587.44;5168587;28;20066;-69
2022/05/21 07:22:06;;;;;;;4.93;1.77;;;16.10;99.90;;;16.21;70.91;101582.91;5168588;28;20054;-70
2022/05/21 07:24:39;;;;;;;5.75;2.10;;;16.00;99.90;;;16.26;71.01;101594.44;5168593;28;20066;-69
2022/05/21 07:27:13;;;;;;;5.38;1.90;;;16.00;99.90;;;16.32;71.44;101592.81;5168271;28;20054;-69
2022/05/21 07:29:46;;;;;;;5.68;2.08;;;16.00;99.90;;;16.68;75.84;101585.75;5168165;28;20054;-71
2022/05/21 07:32:23;;;;;;;5.05;1.80;;;16.40;99.90;;;16.99;74.20;101590.00;5168852;28;20046;-69
2022/05/21 07:34:59;;;;;;;2.85;1.45;;;16.70;99.90;;;17.32;73.39;101602.06;5168375;28;20082;-71
2022/05/21 07:37:31;;;;;;;8.88;2.17;;;17.10;99.90;;;17.49;71.46;101591.88;5168180;28;20046;-68
2022/05/21 07:40:05;;;;;;;4.00;1.85;;;17.30;99.90;;;17.69;70.18;101600.16;5168187;28;20054;-68
2022/05/21 07:42:37;;;;;;;4.65;1.83;;;17.50;99.90;;;17.76;68.71;101600.31;5168077;28;20046;-68
2022/05/21 07:45:13;;;;;;;5.00;1.80;;;17.60;99.90;;;17.88;68.68;101599.66;5168025;28;20053;-69
2022/05/21 07:47:46;;;;;;;4.10;1.70;;;17.70;99.90;;;18.03;67.99;101599.91;5167878;28;20042;-69
2022/05/21 07:50:22;;;;;;;6.13;2.20;;;17.90;99.90;;;18.16;67.00;101601.00;5168090;28;20077;-68
2022/05/21 07:52:54;;;;;;;4.32;1.92;;;18.00;99.90;;;18.23;65.79;101597.59;5168289;28;20141;-69
2022/05/21 07:55:26;;;;;;;3.85;1.83;;;18.10;99.90;;;18.37;65.17;101603.09;5168172;28;20480;-66
2022/05/21 07:57:58;;;;;;;4.50;1.70;;;18.10;99.80;;;18.53;64.37;101606.88;5167555;28;20054;-67
2022/05/21 08:00:30;;;;;;;4.93;2.22;;;18.20;99.70;;;18.55;63.31;101613.94;5167685;28;20380;-66
2022/05/21 08:03:04;;;;;;;10.10;2.63;;;18.20;99.10;;;18.49;62.72;101610.31;5169731;28;20081;-68
2022/05/21 08:05:36;;;;;;;6.60;2.00;;;18.20;98.60;;;18.37;62.54;101614.53;5169734;28;20049;-66
2022/05/21 08:08:10;;;;;;;4.05;2.03;;;18.10;98.30;;;18.41;63.06;101623.41;5177823;28;20054;-66
2022/05/21 08:10:45;;;;;;;5.97;2.30;;;18.20;98.70;;;18.49;62.70;101608.56;5179936;28;20128;-65
2022/05/21 08:13:18;;;;;;;7.60;2.38;;;18.20;98.40;;;18.51;61.96;101620.03;5187789;28;20073;-65
2022/05/21 08:15:50;;;;;;;5.10;2.92;;;18.20;97.80;;;18.49;61.63;101611.22;5187842;28;20077;-73
2022/05/21 08:18:24;;;;;;;3.38;1.95;;;18.20;97.60;;;18.45;61.33;101609.38;5157760;28;20488;-69
2022/05/21 08:20:56;;;;;;;5.75;1.95;;;18.20;97.40;;;18.47;61.24;101615.59;5147711;28;20053;-69
2022/05/21 08:29:08;;;;;;;5.88;1.80;;;18.10;97.00;;;18.30;61.06;101609.16;5187688;28;20486;-70
2022/05/21 08:31:40;;;;;;;5.60;2.08;;;18.10;97.20;;;18.18;61.03;101605.44;5187506;28;20415;-70
2022/05/21 08:34:13;;;;;;;5.03;1.60;;;18.00;97.10;;;18.09;61.75;101613.22;5187419;28;20487;-72
2022/05/21 08:36:45;;;;;;;3.38;1.75;;;17.80;97.40;;;18.00;62.28;101620.97;5186084;28;20501;-71
2022/05/21 08:39:18;;;;;;;4.22;2.22;;;17.80;97.70;;;17.87;62.50;101619.00;5187441;28;20406;-70
2022/05/21 08:41:54;;;;;;;4.20;1.90;;;17.60;97.70;;;18.16;63.10;101623.00;5187435;28;20133;-72
2022/05/21 08:44:39;;;;;;;3.50;1.48;;;17.70;98.50;;;20.26;59.92;101612.47;5187593;28;20057;-72
2022/05/21 08:47:21;;;;;;;4.05;1.70;;;18.60;99.30;;;21.31;54.82;101621.09;5187182;28;20045;-72
2022/05/21 08:49:59;;;;;;;4.25;1.35;;;19.50;96.90;;;21.78;52.97;101628.31;5186991;28;20049;-72
2022/05/21 08:52:41;;;;;;;4.82;1.73;;;20.00;95.30;;;21.89;50.53;101626.53;5187309;28;20392;-62
2022/05/21 08:55:19;;;;;;;2.90;1.30;;;20.30;93.00;;;21.33;51.06;101622.00;5186907;28;20117;-71
2022/05/21 08:57:56;;;;;;;5.13;1.35;;;20.30;92.10;;;20.66;51.70;101626.91;5179678;28;20046;-70
2022/05/21 09:00:33;;;;;;;3.22;1.88;;;19.90;91.40;;;20.33;52.91;101623.09;5172478;28;20434;-71
2022/05/21 09:03:08;;;;;;;5.55;1.60;;;19.60;91.80;;;20.23;53.39;101629.22;5184921;28;20140;-70
2022/05/21 09:05:50;;;;;;;3.85;1.38;;;19.50;92.10;;;20.45;53.57;101624.13;5180843;28;20053;-69
2022/05/21 09:08:30;;;;;;;2.63;1.15;;;19.50;92.70;;;20.55;53.52;101621.56;5186688;28;20123;-69
2022/05/21 09:11:04;;;;;;;;;;;19.60;92.60;;;21.19;52.86;101625.41;5187502;28;20057;-70
2022/05/21 09:13:41;;;;;;;4.13;1.13;;;19.90;92.50;;;22.13;50.55;101635.47;5186363;28;19921;-64
2022/05/21 09:19:08;;;;;;;3.92;1.40;;;21.00;90.60;;;22.96;48.29;101630.97;5186271;28;20053;-68
2022/05/21 09:21:46;;;;;;;4.03;1.52;;;21.40;89.90;;;23.06;47.64;101622.06;5186404;28;20042;-67
2022/05/21 09:24:39;;;;;;;4.53;1.15;;;21.60;87.20;;;23.53;47.01;101628.94;5186295;28;20045;-66
2022/05/21 09:27:34;;;;;;;3.15;1.00;;;22.00;86.30;;;24.16;46.14;101621.44;5186566;28;20499;-68
2022/05/21 09:30:23;;;;;;;3.95;1.30;;;22.70;84.60;;;24.16;44.62;101631.22;5185521;28;20050;-67
2022/05/21 09:32:58;;;;;;;5.13;1.50;;;22.90;80.20;;;23.88;44.51;101625.22;5186303;28;20057;-73
2022/05/21 09:35:33;;;;;;;2.25;1.10;;;22.90;78.40;;;23.72;44.80;101635.06;5186550;28;20050;-73
2022/05/21 09:38:18;;;;;;;6.10;1.35;;;22.80;78.30;;;23.75;44.61;101630.63;5186284;28;20057;-69
2022/05/21 09:40:50;;;;;;;5.40;1.33;;;22.80;77.10;;;23.76;44.41;101628.84;5186200;28;20073;-70
2022/05/21 09:46:19;;;;;;;6.40;1.58;;;22.70;75.80;;;22.69;46.01;101637.19;5186104;28;20053;-70
2022/05/21 09:48:53;;;;;;;3.20;1.30;;;22.20;76.30;;;22.09;47.30;101634.56;5169921;28;20414;-73
2022/05/21 09:51:29;;;;;;;6.60;1.90;;;21.70;77.40;;;21.57;48.34;101625.59;5169714;28;20061;-72
2022/05/21 09:54:20;;;;;;;3.15;1.40;;;21.30;78.30;;;21.19;49.56;101620.13;5168515;28;20101;-67
2022/05/21 09:56:55;;;;;;;5.70;1.50;;;20.90;80.30;;;21.34;50.25;101615.81;5173278;28;20191;-71
2022/05/21 09:59:30;;;;;;;5.18;1.58;;;20.80;81.80;;;21.57;49.88;101607.03;5177109;28;20136;-70
2022/05/21 10:02:19;;;;;;;4.05;1.45;;;20.90;82.20;;;21.88;49.97;101605.31;5185833;28;20049;-72
2022/05/21 10:04:56;;;;;;;5.55;1.30;;;21.10;82.80;;;22.04;49.00;101606.19;5171276;28;20058;-68
2022/05/21 10:13:21;;;;;;;4.65;1.45;;;21.20;81.40;;;21.57;49.65;101613.22;5185316;28;20160;-68
2022/05/21 10:15:59;;;;;;;6.40;1.80;;;21.10;81.40;;;21.38;49.67;101614.03;5185625;28;20418;-67
2022/05/21 10:18:39;;;;;;;5.85;1.48;;;20.90;81.00;;;21.36;50.90;101602.53;5184966;28;20054;-67
2022/05/21 10:21:20;;;;;;;8.05;2.10;;;20.90;82.90;;;21.59;51.08;101605.28;5185649;28;20407;-67
2022/05/21 10:23:57;;;;;;;25.65;6.10;;;21.00;83.70;;;21.83;50.76;101600.00;5185620;28;20050;-68
2022/05/21 10:26:50;;;;;;;16.92;3.75;;;21.20;83.50;;;21.99;48.98;101595.59;5177960;28;20057;-67
2022/05/21 10:29:59;;;;;;;9.18;2.90;;;21.30;81.50;;;22.14;48.17;101608.03;5160800;28;20100;-67
2022/05/21 10:33:09;;;;;;;5.80;1.90;;;21.50;80.10;;;22.35;47.86;101605.34;5162343;28;20384;-68
2022/05/21 10:35:57;;;;;;;5.57;1.40;;;21.60;79.40;;;22.53;46.38;101599.13;5162615;28;20166;-65
2022/05/21 10:39:23;;;;;;;4.95;1.33;;;21.80;77.30;;;22.23;46.34;101601.81;5164823;28;20101;-66
2022/05/21 10:42:26;;;;;;;5.60;1.38;;;21.70;76.40;;;21.87;46.51;101606.22;5168973;28;20414;-65
2022/05/21 10:45:17;;;;;;;1.48;1.02;;;21.50;75.90;;;21.81;47.64;101600.88;5169567;28;20057;-64
2022/05/21 10:48:29;;;;;;;2.97;1.08;;;21.30;77.30;;;22.09;47.21;101601.81;5169115;28;20042;-66
2022/05/21 10:51:08;;;;;;;4.35;1.38;;;21.50;77.70;;;22.33;47.03;101600.94;5157674;28;20495;-66
2022/05/21 10:54:32;;;;;;;2.60;1.10;;;21.60;77.70;;;22.30;46.30;101600.91;5178437;28;20509;-67
2022/05/21 10:57:26;;;;;;;3.15;1.17;;;21.70;76.00;;;22.19;46.42;101611.56;5181417;28;20041;-68
2022/05/21 11:00:08;;;;;;;3.75;1.30;;;21.70;75.70;;;22.26;46.80;101613.34;5185928;28;20057;-71
2022/05/21 11:03:08;;;;;;;5.30;1.60;;;21.70;76.30;;;22.20;45.89;101616.00;5189110;28;20053;-68
2022/05/21 11:05:54;;;;;;;3.63;1.30;;;21.70;75.00;;;21.95;45.60;101620.34;5266750;22;20136;-78
2022/05/21 11:08:35;;;;;;;3.53;1.30;;;21.50;74.10;;;21.80;45.48;101609.75;5210375;28;20055;-86
2022/05/21 11:11:14;;;;;;;2.80;1.20;;;21.40;73.40;;;21.61;45.48;101614.13;5219141;28;20049;-86
2022/05/21 11:13:57;;;;;;;4.18;1.23;;;21.20;73.30;;;21.45;45.87;101614.94;5219486;28;20069;-85
2022/05/21 11:16:38;;;;;;;3.83;1.08;;;21.00;73.70;;;21.64;46.35;101615.00;5219524;28;20056;-86
2022/05/21 11:19:17;;;;;;;2.25;1.38;;;21.10;74.80;;;21.88;46.39;101600.88;5217043;28;20057;-87
2022/05/21 11:21:53;;;;;;;4.15;1.30;;;21.20;75.40;;;22.06;44.29;101597.38;5218801;28;20076;-86
2022/05/21 11:24:45;;;;;;;1.80;1.10;;;21.40;72.60;;;22.32;43.90;101596.50;5219037;28;20059;-86
2022/05/21 11:27:25;;;;;;;3.40;1.13;;;21.60;72.20;;;22.57;44.07;101584.09;5218021;28;20053;-86